Quick Links (Output Below):   Max & Min Temps   /   Climate Reports   /   Zone Forecasts
River Forecasts   /   Forestry Forecasts   /   Aviation Forecasts   /   Radars   /   Features

Terminal Aerodrome Forecast (Jonesboro)

Pick a Site:
Arkadelphia | El Dorado | Fayetteville | Fort Smith | Harrison | Highfill | Hot Springs | Jonesboro
Little Rock | Monticello | Mountain Home | Pine Bluff | Texarkana
 Forecast 

KJBR 292334Z 3000/3024 33002KT P6SM SCT250
      TEMPO 3010/3013 3SM BR FEW001
     FM301600 07005KT P6SM FEW050=


 Latest METARs (Observations) 
How to Decode METARs
04Z KJBR 300353Z AUTO 32003KT 10SM CLR 23/21 A3005 RMK AO2 SLP172
         T02330206 $
         
03Z KJBR 300253Z AUTO 00000KT 10SM CLR 23/21 A3006 RMK AO2 SLP176
         T02330206 53003 $
         
02Z KJBR 300153Z AUTO 00000KT 10SM CLR 24/22 A3005 RMK AO2 SLP172
         T02440217 $
         
01Z KJBR 300053Z AUTO 29003KT 10SM CLR 27/21 A3005 RMK AO2 SLP171
         T02670211 $
         
00Z KJBR 292353Z AUTO 29003KT 10SM CLR 28/19 A3005 RMK AO2 SLP173
         T02830189 10300 20278 56007 $
         
***** Today's Observations (Above) *****


23Z KJBR 292253Z AUTO 32005KT 10SM CLR 28/19 A3005 RMK AO2 SLP174
         T02830189 $
         
22Z KJBR 292153Z AUTO 29005KT 10SM CLR 29/17 A3006 RMK AO2 SLP176
         T02940172 $
         
21Z KJBR 292053Z AUTO 33007KT 10SM CLR 30/18 A3007 RMK AO2 SLP179
         T03000183 58011 $
         
20Z KJBR 291953Z AUTO VRB05KT 10SM CLR 30/19 A3009 RMK AO2 SLP186
         T03000194 $
         
19Z KJBR 291853Z AUTO 36004KT 10SM BKN039 OVC048 29/20 A3009 RMK AO2
         SLP187 T02890200 $
         
***** Yesterday's Observations (Above) *****


Back to Main Page
http://www.srh.noaa.gov/lzk/qfcst.php

USA.gov is the U.S. government's official web portal to all federal, state and local government web resources and services.